Aérodrome :
LOGIN :

S'inscrire | Disclaimer

   EN    FR    IT 

 










Légende :    VFR   VFR Marginal   IFR   IFR Intensif   IFR Très Intensif
Visi : 
Plafond : 
>= 8 km
>= 3000ft
5 à 8 km
1000 à 3000 ft
1500m à 5 km
500 à 1000 ft
800 à 1500m
200 à 500 ft
< 800m
< 200 ft
Symboles :   Orages  Brouillard  Fortes neiges  Fortes précipitations  Vent > 20 kt
SIGMETs :   Divers  Orages  Givrage  Turbulence  Onde Orograph.  Cendres Volcan.







- Altitude de l'aérodrome : 778 ft
- Code IATA : BRQ


LKTB - Brno-Turany

DERNIER METAR :
  • 251601Z 31014G31KT 9999 -SHRA FEW033CB BKN042 07/00 Q1015 RMK REG QNH 1009

METARs EXPIRÉS :
  • 251530Z 32012KT 9999 -SHRA FEW020TCU BKN027 06/01 Q1014 NOSIG
  • 251513Z 30009KT 9999 -SHRA FEW020TCU BKN027 06/02 Q1014 RMK REG QNH 1009
  • 251500Z 31010KT 270V340 9999 BKN031 06/02 Q1014 NOSIG
  • 251430Z 30012KT 9999 FEW032TCU 06/02 Q1014 NOSIG
  • 251400Z 30022G32KT 9999 -SHRA FEW032TCU 04/02 Q1014 NOSIG
  • 251341Z 28021G36KT 250V310 9999 -SHRA BKN044 07/01 Q1013 RMK REG QNH 1008
  • 251330Z 27022G32KT CAVOK 08/M00 Q1013 NOSIG

TAF TAF LKTB
Valide du 25 à 12h jusqu'au 26 à 18h UTC


251100Z 2512/2618 29012KT 9999 BKN035
TEMPO 2512/2521 32016G30KT 5000 SHRA BKN017
TEMPO 2611/2618 33018G34KT
Pas de NOTAMs connus pour ce terrain.



MET'MAP, la Météo Aéronautique d'un coup d'oeil ! - Copyright ORBIFLY Décembre 2007 - Disclaimer

ORBIFLY MET'MAP TEAM :

Programmation & Développement : Alexandra Zaïnal
Conception & Développement : Baudouin d'Aumeries
Co-Programmation & Développement : Marc-Olivier Méhu
Soutien technique & logistique : Manuel Goepfert

Contact : metmap@orbifly.com




SOURCES & CREDITS :

   NOAA